Time;durP1;ratioP1;P1;durP2;ratioP2;P2;SDS_P1;SDS_P2;PMS_P1;PMS_P2;Temp;Humidity;BMP_temperature;BMP_pressure;BME280_temperature;BME280_humidity;BME280_pressure;Samples;Min_cycle;Max_cycle;Signal;HPM_P1;HPM_P2
2022/05/17 00:00:54;;;;;;;;;;;21.00;53.30;;;;;;5032183;28;82413;-47
2022/05/17 00:03:21;;;;;;;;;;;21.00;53.20;;;;;;5032631;28;81805;-47
2022/05/17 00:05:47;;;;;;;;;;;20.90;53.20;;;;;;5033198;28;81009;-47
2022/05/17 00:08:14;;;;;;;;;;;20.90;53.20;;;;;;5032129;28;82874;-47
2022/05/17 00:10:40;;;;;;;;;;;20.90;53.20;;;;;;5032315;28;81858;-47
2022/05/17 00:13:06;;;;;;;;;;;20.90;53.20;;;;;;5031988;28;82817;-49
2022/05/17 00:15:32;;;;;;;;;;;20.90;53.20;;;;;;5032039;28;83865;-47
2022/05/17 00:17:58;;;;;;;;;;;20.80;53.20;;;;;;5035059;28;82007;-47
2022/05/17 00:20:23;;;;;;;;;;;20.80;53.20;;;;;;5032231;28;81846;-47
2022/05/17 00:22:49;;;;;;;;;;;20.80;53.20;;;;;;5032104;28;81809;-47
2022/05/17 00:25:16;;;;;;;;;;;20.70;53.30;;;;;;5031842;28;83129;-48
2022/05/17 00:27:42;;;;;;;;;;;20.70;53.20;;;;;;5032140;28;81899;-47
2022/05/17 00:30:08;;;;;;;;;;;20.70;53.20;;;;;;5032501;28;81029;-47
2022/05/17 00:32:34;;;;;;;;;;;20.70;53.30;;;;;;5032048;28;82344;-47
2022/05/17 00:34:59;;;;;;;;;;;20.70;53.30;;;;;;5031926;28;81827;-47
2022/05/17 00:37:25;;;;;;;;;;;20.70;53.30;;;;;;5033493;28;82918;-47
2022/05/17 00:39:51;;;;;;;;;;;20.70;53.40;;;;;;5031804;28;82629;-47
2022/05/17 00:42:17;;;;;;;;;;;20.60;53.30;;;;;;5032108;28;81847;-47
2022/05/17 00:44:42;;;;;;;;;;;20.60;53.30;;;;;;5031838;28;82261;-47
2022/05/17 00:47:08;;;;;;;;;;;20.60;53.40;;;;;;5031869;28;82471;-47
2022/05/17 00:49:36;;;;;;;;;;;20.60;53.40;;;;;;5031677;28;82106;-47
2022/05/17 00:52:04;;;;;;;;;;;20.50;53.30;;;;;;5031718;28;83017;-47
2022/05/17 00:54:30;;;;;;;;;;;20.50;53.40;;;;;;5031812;28;82195;-47
2022/05/17 00:57:04;;;;;;;;;;;20.50;53.50;;;;;;5031522;28;82021;-47
2022/05/17 00:59:30;;;;;;;;;;;20.50;53.50;;;;;;5034063;28;82067;-47
2022/05/17 01:01:56;;;;;;;;;;;20.50;53.40;;;;;;5030944;28;82812;-47
2022/05/17 01:04:23;;;;;;;;;;;20.50;53.40;;;;;;5031471;28;82976;-47
2022/05/17 01:06:51;;;;;;;;;;;20.40;53.40;;;;;;5031122;28;82430;-47
2022/05/17 01:09:17;;;;;;;;;;;20.40;53.50;;;;;;5031712;28;81991;-47
2022/05/17 01:11:43;;;;;;;;;;;20.30;53.50;;;;;;5031426;28;82967;-47
2022/05/17 01:16:53;;;;;;;;;;;20.30;53.50;;;;;;5028294;28;81862;-47
2022/05/17 01:19:19;;;;;;;;;;;20.30;53.40;;;;;;5032016;28;81851;-47
2022/05/17 01:21:45;;;;;;;;;;;20.30;53.50;;;;;;5034042;28;82499;-47
2022/05/17 01:24:10;;;;;;;;;;;20.20;53.40;;;;;;5031298;28;81687;-47
2022/05/17 01:26:41;;;;;;;;;;;20.20;53.50;;;;;;5030517;28;83467;-47
2022/05/17 01:29:08;;;;;;;;;;;20.20;53.50;;;;;;5031133;28;82067;-47
2022/05/17 01:31:38;;;;;;;;;;;20.20;53.50;;;;;;5031116;28;82153;-47
2022/05/17 01:34:07;;;;;;;;;;;20.20;54.20;;;;;;5031086;28;81877;-47
2022/05/17 01:36:33;;;;;;;;;;;20.20;53.40;;;;;;5031044;28;81825;-47
2022/05/17 01:38:59;;;;;;;;;;;20.10;53.50;;;;;;5030925;28;83038;-47
2022/05/17 01:41:25;;;;;;;;;;;20.10;53.40;;;;;;5030703;28;82518;-47
2022/05/17 01:43:52;;;;;;;;;;;20.10;53.50;;;;;;5034129;28;81365;-47
2022/05/17 01:46:19;;;;;;;;;;;20.00;53.50;;;;;;5030622;28;83508;-47
2022/05/17 01:48:45;;;;;;;;;;;20.00;53.40;;;;;;5030751;28;81822;-47
2022/05/17 01:51:11;;;;;;;;;;;20.00;53.60;;;;;;5030508;28;82818;-47
2022/05/17 01:53:37;;;;;;;;;;;20.00;53.50;;;;;;5030542;28;83556;-47
2022/05/17 01:56:03;;;;;;;;;;;20.00;53.50;;;;;;5030657;28;81890;-47
2022/05/17 01:58:29;;;;;;;;;;;19.90;53.50;;;;;;5030589;28;83330;-47
2022/05/17 02:00:55;;;;;;;;;;;19.90;53.50;;;;;;5030518;28;82584;-47
2022/05/17 02:03:20;;;;;;;;;;;19.90;53.50;;;;;;5030919;28;81894;-47
2022/05/17 02:05:46;;;;;;;;;;;19.90;53.60;;;;;;5033070;28;82994;-47
2022/05/17 02:08:11;;;;;;;;;;;19.90;53.50;;;;;;5031067;28;81265;-47
2022/05/17 02:10:38;;;;;;;;;;;19.90;53.50;;;;;;5030364;28;82241;-47
2022/05/17 02:13:04;;;;;;;;;;;19.90;53.60;;;;;;5029708;28;83427;-47
2022/05/17 02:15:30;;;;;;;;;;;19.80;53.50;;;;;;5029445;28;82981;-47
2022/05/17 02:17:55;;;;;;;;;;;19.80;53.50;;;;;;5030197;28;84006;-47
2022/05/17 02:20:21;;;;;;;;;;;19.80;53.60;;;;;;5029860;28;82409;-47
2022/05/17 02:22:46;;;;;;;;;;;19.80;53.60;;;;;;5030367;28;82356;-46
2022/05/17 02:25:12;;;;;;;;;;;19.70;53.50;;;;;;5030175;28;82163;-47
2022/05/17 02:27:38;;;;;;;;;;;19.70;53.60;;;;;;5033028;28;82732;-47
2022/05/17 02:30:05;;;;;;;;;;;19.70;53.50;;;;;;5030188;28;83062;-47
2022/05/17 02:32:31;;;;;;;;;;;19.70;53.50;;;;;;5030537;28;81038;-47
2022/05/17 02:34:56;;;;;;;;;;;19.70;53.60;;;;;;5030319;28;81867;-47
2022/05/17 02:37:22;;;;;;;;;;;19.70;53.40;;;;;;5030063;28;82806;-47
2022/05/17 02:39:48;;;;;;;;;;;19.60;53.50;;;;;;5028618;28;82892;-47
2022/05/17 02:42:13;;;;;;;;;;;19.60;53.50;;;;;;5030110;28;81826;-47
2022/05/17 02:44:39;;;;;;;;;;;19.60;53.50;;;;;;5029945;28;83143;-47
2022/05/17 02:47:05;;;;;;;;;;;19.60;53.50;;;;;;5032485;28;82580;-47
2022/05/17 02:49:30;;;;;;;;;;;19.60;53.50;;;;;;5029989;28;82268;-47
2022/05/17 02:52:00;;;;;;;;;;;19.60;53.50;;;;;;5029696;28;82577;-47
2022/05/17 02:54:25;;;;;;;;;;;19.50;53.40;;;;;;5029688;28;81922;-47
2022/05/17 02:56:51;;;;;;;;;;;19.50;54.00;;;;;;5030617;28;81688;-47
2022/05/17 02:59:18;;;;;;;;;;;19.50;53.50;;;;;;5029585;28;83388;-46
2022/05/17 03:01:44;;;;;;;;;;;19.50;53.50;;;;;;5029848;28;81870;-47
2022/05/17 03:04:12;;;;;;;;;;;19.50;53.60;;;;;;5029034;28;83152;-46
2022/05/17 03:06:38;;;;;;;;;;;19.50;53.40;;;;;;5029465;28;83467;-47
2022/05/17 03:09:04;;;;;;;;;;;19.40;53.40;;;;;;5032500;28;81837;-47
2022/05/17 03:11:30;;;;;;;;;;;19.40;53.50;;;;;;5029486;28;83447;-47
2022/05/17 03:13:55;;;;;;;;;;;19.40;53.50;;;;;;5029750;28;81836;-47
2022/05/17 03:16:27;;;;;;;;;;;19.40;54.00;;;;;;5028775;28;81849;-47
2022/05/17 03:18:52;;;;;;;;;;;19.30;53.50;;;;;;5029354;28;82703;-47
2022/05/17 03:21:18;;;;;;;;;;;19.30;53.50;;;;;;5030295;28;81172;-47
2022/05/17 03:23:43;;;;;;;;;;;19.30;53.50;;;;;;5029394;28;81926;-47
2022/05/17 03:26:10;;;;;;;;;;;19.30;53.50;;;;;;5029418;28;82449;-47
2022/05/17 03:28:36;;;;;;;;;;;19.30;53.50;;;;;;5028771;28;82809;-47
2022/05/17 03:31:05;;;;;;;;;;;19.30;53.50;;;;;;5034422;28;83926;-47
2022/05/17 03:33:31;;;;;;;;;;;19.30;53.50;;;;;;5032950;28;81833;-47
2022/05/17 03:35:57;;;;;;;;;;;19.20;53.50;;;;;;5032886;28;82861;-49
2022/05/17 03:38:22;;;;;;;;;;;19.20;53.50;;;;;;5032642;28;83352;-47
2022/05/17 03:40:48;;;;;;;;;;;19.20;53.50;;;;;;5032901;28;81834;-47
2022/05/17 03:43:15;;;;;;;;;;;19.20;53.60;;;;;;5032853;28;82750;-47
2022/05/17 03:45:41;;;;;;;;;;;19.20;53.50;;;;;;5033388;28;81717;-48
2022/05/17 03:48:06;;;;;;;;;;;19.20;53.50;;;;;;5033011;28;81912;-47
2022/05/17 03:50:32;;;;;;;;;;;19.10;53.50;;;;;;5033123;28;81810;-47
2022/05/17 03:52:59;;;;;;;;;;;19.10;53.40;;;;;;5034523;28;83559;-47
2022/05/17 03:55:25;;;;;;;;;;;19.10;53.50;;;;;;5032559;28;82972;-47
2022/05/17 03:57:51;;;;;;;;;;;19.10;53.50;;;;;;5031943;28;82673;-48
2022/05/17 04:00:16;;;;;;;;;;;19.00;53.50;;;;;;5031953;28;81903;-48
2022/05/17 04:02:42;;;;;;;;;;;19.00;53.50;;;;;;5031868;28;82717;-47
2022/05/17 04:05:09;;;;;;;;;;;19.00;53.50;;;;;;5031639;28;82483;-47
2022/05/17 04:07:35;;;;;;;;;;;19.00;53.60;;;;;;5031961;28;81952;-46
2022/05/17 04:10:00;;;;;;;;;;;19.00;53.60;;;;;;5032249;28;83002;-48
2022/05/17 04:12:27;;;;;;;;;;;19.00;53.50;;;;;;5031534;28;82490;-47
2022/05/17 04:14:55;;;;;;;;;;;19.00;53.50;;;;;;5034382;28;81859;-47
2022/05/17 04:17:21;;;;;;;;;;;19.00;53.50;;;;;;5031010;28;83124;-47
2022/05/17 04:19:46;;;;;;;;;;;19.00;53.60;;;;;;5031913;28;81726;-48
2022/05/17 04:22:12;;;;;;;;;;;19.00;53.60;;;;;;5031720;28;82890;-49
2022/05/17 04:24:41;;;;;;;;;;;18.90;53.60;;;;;;5031025;28;82482;-48
2022/05/17 04:27:07;;;;;;;;;;;18.90;53.60;;;;;;5031613;28;81874;-47
2022/05/17 04:29:32;;;;;;;;;;;18.80;53.70;;;;;;5031539;28;83280;-47
2022/05/17 04:31:58;;;;;;;;;;;18.80;53.70;;;;;;5031291;28;83445;-46
2022/05/17 04:34:24;;;;;;;;;;;18.80;53.60;;;;;;5031898;28;81113;-47
2022/05/17 04:36:49;;;;;;;;;;;18.90;53.70;;;;;;5033997;28;81942;-47
2022/05/17 04:39:15;;;;;;;;;;;18.90;53.60;;;;;;5031643;28;81914;-48
2022/05/17 04:41:41;;;;;;;;;;;18.80;53.60;;;;;;5030074;28;82951;-47
2022/05/17 04:44:06;;;;;;;;;;;18.80;53.70;;;;;;5031520;28;82286;-47
2022/05/17 04:46:32;;;;;;;;;;;18.80;53.60;;;;;;5031248;28;81826;-47
2022/05/17 04:48:58;;;;;;;;;;;18.80;53.80;;;;;;5031449;28;81869;-47
2022/05/17 04:51:25;;;;;;;;;;;18.80;53.80;;;;;;5030901;28;82805;-47
2022/05/17 04:53:50;;;;;;;;;;;18.80;53.70;;;;;;5031380;28;81813;-47
2022/05/17 04:56:16;;;;;;;;;;;18.70;53.70;;;;;;5034019;28;81927;-48
2022/05/17 04:58:43;;;;;;;;;;;18.80;53.60;;;;;;5031747;28;81321;-47
2022/05/17 05:01:08;;;;;;;;;;;18.80;53.70;;;;;;5031163;28;81819;-48
2022/05/17 05:03:34;;;;;;;;;;;18.70;53.70;;;;;;5030769;28;83233;-48
2022/05/17 05:05:59;;;;;;;;;;;18.70;53.70;;;;;;5030361;28;82809;-47
2022/05/17 05:08:25;;;;;;;;;;;18.70;53.70;;;;;;5031182;28;81814;-47
2022/05/17 05:10:50;;;;;;;;;;;18.70;53.70;;;;;;5030688;28;83442;-47
2022/05/17 05:13:17;;;;;;;;;;;18.70;53.60;;;;;;5029999;28;81858;-48
2022/05/17 05:15:43;;;;;;;;;;;18.70;53.60;;;;;;5030857;28;81993;-47
2022/05/17 05:18:10;;;;;;;;;;;18.80;53.70;;;;;;5033652;28;82988;-47
2022/05/17 05:20:36;;;;;;;;;;;18.70;54.40;;;;;;5030874;28;82976;-48
2022/05/17 05:23:02;;;;;;;;;;;18.70;53.90;;;;;;5031015;28;81720;-47
2022/05/17 05:25:27;;;;;;;;;;;18.70;54.00;;;;;;5030765;28;81829;-47
2022/05/17 05:27:54;;;;;;;;;;;18.70;54.00;;;;;;5031131;28;81801;-47
2022/05/17 05:30:20;;;;;;;;;;;18.70;54.00;;;;;;5029093;28;82713;-47
2022/05/17 05:32:46;;;;;;;;;;;18.70;54.10;;;;;;5030579;28;81909;-48
2022/05/17 05:35:13;;;;;;;;;;;18.70;54.10;;;;;;5030824;28;83234;-47
2022/05/17 05:37:39;;;;;;;;;;;18.70;54.20;;;;;;5030592;28;82469;-47
2022/05/17 05:40:07;;;;;;;;;;;18.70;54.20;;;;;;5033516;28;81977;-47
2022/05/17 05:42:32;;;;;;;;;;;18.70;54.20;;;;;;5030287;28;83399;-46
2022/05/17 05:44:58;;;;;;;;;;;18.70;54.20;;;;;;5030588;28;82273;-47
2022/05/17 05:50:03;;;;;;;;;;;18.70;54.30;;;;;;5248877;23;83973;-47
2022/05/17 05:52:29;;;;;;;;;;;18.70;54.40;;;;;;4990735;28;82002;-46
2022/05/17 05:54:55;;;;;;;;;;;18.70;54.50;;;;;;4988971;28;83072;-46
2022/05/17 05:57:20;;;;;;;;;;;18.70;54.40;;;;;;4990589;28;82545;-46
2022/05/17 05:59:46;;;;;;;;;;;18.70;54.40;;;;;;4990679;28;81978;-47
2022/05/17 06:02:12;;;;;;;;;;;18.70;54.50;;;;;;4992890;28;82110;-47
2022/05/17 06:04:38;;;;;;;;;;;18.70;54.50;;;;;;4990376;28;81966;-47
2022/05/17 06:07:04;;;;;;;;;;;18.70;54.50;;;;;;4989805;28;82109;-47
2022/05/17 06:09:29;;;;;;;;;;;18.70;54.50;;;;;;4989857;28;83233;-48
2022/05/17 06:11:55;;;;;;;;;;;18.70;54.40;;;;;;4990635;28;80997;-46
2022/05/17 06:14:21;;;;;;;;;;;18.80;54.60;;;;;;4990015;28;81920;-47
2022/05/17 06:16:47;;;;;;;;;;;18.70;54.50;;;;;;4989834;28;83651;-47
2022/05/17 06:19:12;;;;;;;;;;;18.70;54.50;;;;;;4989139;28;82775;-47
2022/05/17 06:21:38;;;;;;;;;;;18.80;54.50;;;;;;4990132;28;81891;-47
2022/05/17 06:24:04;;;;;;;;;;;18.80;54.60;;;;;;4992717;28;82997;-47
2022/05/17 06:26:30;;;;;;;;;;;18.80;54.60;;;;;;4989896;28;83468;-48
2022/05/17 06:28:56;;;;;;;;;;;18.80;54.50;;;;;;4989493;28;83524;-47
2022/05/17 06:31:22;;;;;;;;;;;18.80;54.50;;;;;;4989807;28;81914;-47
2022/05/17 06:33:47;;;;;;;;;;;18.80;54.60;;;;;;4989705;28;83556;-47
2022/05/17 06:36:13;;;;;;;;;;;18.80;54.70;;;;;;4990147;28;82787;-47
2022/05/17 06:38:38;;;;;;;;;;;18.80;54.70;;;;;;4989551;28;81816;-47
2022/05/17 06:41:04;;;;;;;;;;;18.80;54.70;;;;;;4990485;28;81969;-46
2022/05/17 06:43:30;;;;;;;;;;;18.80;54.70;;;;;;4989241;28;84359;-47
2022/05/17 06:45:56;;;;;;;;;;;18.80;54.60;;;;;;4992909;28;81725;-47
2022/05/17 06:48:21;;;;;;;;;;;18.80;54.70;;;;;;4989921;28;82475;-46
2022/05/17 06:50:47;;;;;;;;;;;18.80;54.60;;;;;;4989921;28;82002;-46
2022/05/17 06:53:13;;;;;;;;;;;18.80;54.70;;;;;;4990136;28;82135;-46
2022/05/17 06:55:39;;;;;;;;;;;18.80;54.50;;;;;;4989696;28;83425;-47
2022/05/17 06:58:05;;;;;;;;;;;18.80;54.70;;;;;;4989880;28;81795;-46
2022/05/17 07:00:31;;;;;;;;;;;18.80;54.70;;;;;;4990417;28;83103;-46
2022/05/17 07:02:58;;;;;;;;;;;18.80;54.70;;;;;;4989711;28;82627;-47
2022/05/17 07:05:23;;;;;;;;;;;18.80;54.70;;;;;;4992295;28;81848;-47
2022/05/17 07:07:49;;;;;;;;;;;18.80;54.70;;;;;;4989379;28;83385;-47
2022/05/17 07:13:08;;;;;;;;;;;18.80;54.70;;;;;;4990141;28;81779;-47
2022/05/17 07:15:34;;;;;;;;;;;18.80;54.80;;;;;;4989652;28;82513;-46
2022/05/17 07:18:00;;;;;;;;;;;18.80;54.80;;;;;;4989707;28;81849;-46
2022/05/17 07:20:26;;;;;;;;;;;18.80;54.80;;;;;;4989529;28;82129;-46
2022/05/17 07:22:52;;;;;;;;;;;18.80;54.70;;;;;;4989486;28;83460;-46
2022/05/17 07:25:18;;;;;;;;;;;18.80;54.90;;;;;;4990351;28;81098;-46
2022/05/17 07:27:45;;;;;;;;;;;18.80;55.00;;;;;;4992429;28;81860;-46
2022/05/17 07:30:11;;;;;;;;;;;18.80;54.90;;;;;;4989560;28;81917;-46
2022/05/17 07:32:37;;;;;;;;;;;18.80;54.90;;;;;;4988928;28;82783;-47
2022/05/17 07:35:03;;;;;;;;;;;18.80;54.90;;;;;;4989484;28;82719;-46
2022/05/17 07:37:29;;;;;;;;;;;18.80;54.90;;;;;;4989432;28;81910;-46
2022/05/17 07:39:55;;;;;;;;;;;18.80;54.90;;;;;;4989583;28;83071;-46
2022/05/17 07:42:20;;;;;;;;;;;18.80;55.00;;;;;;4989565;28;82316;-46
2022/05/17 07:44:46;;;;;;;;;;;18.90;55.00;;;;;;4989415;28;82013;-47
2022/05/17 07:47:12;;;;;;;;;;;18.90;55.00;;;;;;4989654;28;81907;-48
2022/05/17 07:49:42;;;;;;;;;;;18.90;55.00;;;;;;4992019;28;82757;-46
2022/05/17 07:52:07;;;;;;;;;;;18.90;55.00;;;;;;4989408;28;81879;-46
2022/05/17 07:54:33;;;;;;;;;;;18.90;55.10;;;;;;4989111;28;82769;-47
2022/05/17 07:56:59;;;;;;;;;;;18.90;55.00;;;;;;4988740;28;82770;-46
2022/05/17 07:59:24;;;;;;;;;;;18.90;55.00;;;;;;4989201;28;83180;-48
2022/05/17 08:01:50;;;;;;;;;;;18.90;55.00;;;;;;4989110;28;83523;-46
2022/05/17 08:04:16;;;;;;;;;;;18.90;55.00;;;;;;4989145;28;81903;-46
2022/05/17 08:06:42;;;;;;;;;;;18.90;55.00;;;;;;4989389;28;81863;-47
2022/05/17 08:09:08;;;;;;;;;;;18.90;54.90;;;;;;4989000;28;82931;-47
2022/05/17 08:11:34;;;;;;;;;;;19.00;55.00;;;;;;4991854;28;81897;-47
2022/05/17 08:13:59;;;;;;;;;;;18.90;54.90;;;;;;4989437;28;81811;-47
2022/05/17 08:16:25;;;;;;;;;;;19.00;54.90;;;;;;4989014;28;81973;-47
2022/05/17 08:18:51;;;;;;;;;;;19.00;54.90;;;;;;4992340;28;82105;-47
2022/05/17 08:21:16;;;;;;;;;;;19.00;54.80;;;;;;4991468;28;83859;-46
2022/05/17 08:23:43;;;;;;;;;;;19.00;54.80;;;;;;4991652;28;82235;-46
2022/05/17 08:28:55;;;;;;;;;;;19.00;54.80;;;;;;4992319;28;81789;-47
2022/05/17 08:31:21;;;;;;;;;;;19.00;54.80;;;;;;4992237;28;81824;-47
2022/05/17 08:33:48;;;;;;;;;;;19.00;54.80;;;;;;4994612;28;82815;-47
2022/05/17 08:36:14;;;;;;;;;;;19.00;54.70;;;;;;4991961;28;82272;-46
2022/05/17 08:38:41;;;;;;;;;;;19.00;54.70;;;;;;4992506;28;83162;-47
2022/05/17 08:41:13;;;;;;;;;;;19.10;54.70;;;;;;4991805;28;83874;-47
2022/05/17 08:43:47;;;;;;;;;;;19.10;54.70;;;;;;4991973;28;81880;-47
2022/05/17 08:46:31;;;;;;;;;;;19.10;54.70;;;;;;4991747;28;82845;-46
2022/05/17 08:49:00;;;;;;;;;;;19.10;54.70;;;;;;4991441;28;83407;-47
2022/05/17 08:51:45;;;;;;;;;;;19.10;54.70;;;;;;4992100;28;82029;-47
2022/05/17 08:54:14;;;;;;;;;;;19.10;54.70;;;;;;4993870;28;82126;-47
2022/05/17 08:56:43;;;;;;;;;;;19.10;54.70;;;;;;4991719;28;83688;-46
2022/05/17 08:59:11;;;;;;;;;;;19.10;54.60;;;;;;4991989;28;81754;-47
2022/05/17 09:01:49;;;;;;;;;;;19.20;54.70;;;;;;4991463;28;82612;-47
2022/05/17 09:04:31;;;;;;;;;;;19.20;54.60;;;;;;4992058;28;81191;-46
2022/05/17 09:07:12;;;;;;;;;;;19.20;54.70;;;;;;4991653;28;82290;-46
2022/05/17 09:09:43;;;;;;;;;;;19.20;54.80;;;;;;4991249;28;82989;-47
2022/05/17 09:12:11;;;;;;;;;;;19.20;54.70;;;;;;4990572;28;83097;-46
2022/05/17 09:14:41;;;;;;;;;;;19.20;54.70;;;;;;4991430;28;82950;-46
2022/05/17 09:17:21;;;;;;;;;;;19.20;54.60;;;;;;4993893;28;83511;-47
2022/05/17 09:19:51;;;;;;;;;;;19.20;54.70;;;;;;4991340;28;83119;-47
2022/05/17 09:22:16;;;;;;;;;;;19.20;55.40;;;;;;4991226;28;83448;-46
2022/05/17 09:24:44;;;;;;;;;;;19.20;54.60;;;;;;4991541;28;81800;-47
2022/05/17 09:27:12;;;;;;;;;;;19.30;54.50;;;;;;4991481;28;81811;-47
2022/05/17 09:29:37;;;;;;;;;;;19.30;54.50;;;;;;4991231;28;82652;-47
2022/05/17 09:32:07;;;;;;;;;;;19.30;54.50;;;;;;4991284;28;81799;-47
2022/05/17 09:34:33;;;;;;;;;;;19.30;54.50;;;;;;4991149;28;81892;-46
2022/05/17 09:37:03;;;;;;;;;;;19.30;54.50;;;;;;4990620;28;83306;-48
2022/05/17 09:39:30;;;;;;;;;;;19.40;54.60;;;;;;4994084;28;81851;-47
2022/05/17 09:41:59;;;;;;;;;;;19.40;54.50;;;;;;4991036;28;81832;-47
2022/05/17 09:44:26;;;;;;;;;;;19.40;54.50;;;;;;4991285;28;81808;-46
2022/05/17 09:46:56;;;;;;;;;;;19.40;54.50;;;;;;4990992;28;82742;-47
2022/05/17 09:54:53;;;;;;;;;;;19.50;54.60;;;;;;4991385;28;81521;-48
2022/05/17 09:57:31;;;;;;;;;;;19.40;54.60;;;;;;4990666;28;82573;-47
2022/05/17 10:00:12;;;;;;;;;;;19.50;54.60;;;;;;4990708;28;81815;-47
2022/05/17 10:02:49;;;;;;;;;;;19.50;54.60;;;;;;4991954;28;82808;-47
2022/05/17 10:05:20;;;;;;;;;;;19.50;54.50;;;;;;4990654;28;81773;-47
2022/05/17 10:07:50;;;;;;;;;;;19.60;54.50;;;;;;4990640;28;82168;-47
2022/05/17 10:10:23;;;;;;;;;;;19.60;54.50;;;;;;4990608;28;82700;-47
2022/05/17 10:12:51;;;;;;;;;;;19.60;54.40;;;;;;4990706;28;81828;-47
2022/05/17 10:15:19;;;;;;;;;;;19.60;54.40;;;;;;4990427;28;83169;-47
2022/05/17 10:18:08;;;;;;;;;;;19.60;54.20;;;;;;4990187;28;82820;-46
2022/05/17 10:20:38;;;;;;;;;;;19.70;54.30;;;;;;4991302;28;81023;-47
2022/05/17 10:23:22;;;;;;;;;;;19.70;54.50;;;;;;4990394;28;82419;-47
2022/05/17 10:25:57;;;;;;;;;;;19.70;54.30;;;;;;4992972;28;82664;-46
2022/05/17 10:28:32;;;;;;;;;;;19.70;54.30;;;;;;4989721;28;82877;-47
2022/05/17 10:31:12;;;;;;;;;;;19.80;54.30;;;;;;4990154;28;83506;-47
2022/05/17 10:33:50;;;;;;;;;;;19.80;54.40;;;;;;4990219;28;81843;-47
2022/05/17 10:36:23;;;;;;;;;;;19.80;54.30;;;;;;4990122;28;82327;-47
2022/05/17 10:39:09;;;;;;;;;;;19.80;54.20;;;;;;4989982;28;82641;-47
2022/05/17 10:41:34;;;;;;;;;;;19.80;54.20;;;;;;4939073;28;82023;-47
2022/05/17 10:44:02;;;;;;;;;;;19.80;54.20;;;;;;4990341;28;82060;-47
2022/05/17 10:46:31;;;;;;;;;;;19.80;54.20;;;;;;4990633;28;81781;-47
2022/05/17 10:49:03;;;;;;;;;;;19.90;54.30;;;;;;4992510;28;81934;-46
2022/05/17 10:51:45;;;;;;;;;;;19.90;54.10;;;;;;4989773;28;83508;-47
2022/05/17 10:54:20;;;;;;;;;;;19.90;54.10;;;;;;4989664;28;82659;-46
2022/05/17 10:56:57;;;;;;;;;;;19.90;54.10;;;;;;4989797;28;83805;-47
2022/05/17 10:59:26;;;;;;;;;;;19.90;54.10;;;;;;4989722;28;83370;-47
2022/05/17 11:02:11;;;;;;;;;;;20.00;54.20;;;;;;4989887;28;81890;-47
2022/05/17 11:04:57;;;;;;;;;;;20.00;54.20;;;;;;4990004;28;82233;-47
2022/05/17 11:08:01;;;;;;;;;;;20.00;54.10;;;;;;4989696;28;83283;-47
2022/05/17 11:10:30;;;;;;;;;;;20.00;54.10;;;;;;4893525;28;81935;-47
2022/05/17 11:13:06;;;;;;;;;;;20.10;54.20;;;;;;4891095;28;82649;-47
2022/05/17 11:15:35;;;;;;;;;;;20.10;54.20;;;;;;4945288;28;81858;-47
2022/05/17 11:18:13;;;;;;;;;;;20.10;54.20;;;;;;4989701;28;81828;-47
2022/05/17 11:20:44;;;;;;;;;;;20.20;54.20;;;;;;4989117;28;83443;-47
2022/05/17 11:23:25;;;;;;;;;;;20.20;54.20;;;;;;4989743;28;81829;-47
2022/05/17 11:26:09;;;;;;;;;;;20.20;54.20;;;;;;4989958;28;82289;-47
2022/05/17 11:28:38;;;;;;;;;;;20.20;54.20;;;;;;4989352;28;82469;-47
2022/05/17 11:31:17;;;;;;;;;;;20.30;54.10;;;;;;4989624;28;81835;-47
2022/05/17 11:33:43;;;;;;;;;;;20.30;54.10;;;;;;4992031;28;82782;-47
2022/05/17 11:36:32;;;;;;;;;;;20.30;54.10;;;;;;4989490;28;82424;-47
2022/05/17 11:38:58;;;;;;;;;;;20.30;54.10;;;;;;4976374;28;82743;-47
2022/05/17 11:41:33;;;;;;;;;;;20.30;54.10;;;;;;4989267;28;83568;-47
2022/05/17 11:44:05;;;;;;;;;;;20.40;54.10;;;;;;4989442;28;81816;-47
2022/05/17 11:46:31;;;;;;;;;;;20.40;54.10;;;;;;4989125;28;82919;-47
2022/05/17 11:48:57;;;;;;;;;;;20.50;54.10;;;;;;4989019;28;81825;-47
2022/05/17 11:51:24;;;;;;;;;;;20.40;54.00;;;;;;4990850;28;81823;-48
2022/05/17 11:53:51;;;;;;;;;;;20.40;54.00;;;;;;4992789;28;82108;-50
2022/05/17 11:56:19;;;;;;;;;;;20.50;54.00;;;;;;4995264;28;82761;-48
2022/05/17 11:58:55;;;;;;;;;;;20.50;54.00;;;;;;4992709;28;82306;-47
2022/05/17 12:01:30;;;;;;;;;;;20.60;54.00;;;;;;4992526;28;82539;-47
2022/05/17 12:04:04;;;;;;;;;;;20.60;54.20;;;;;;4993056;28;81178;-47
2022/05/17 12:06:29;;;;;;;;;;;20.60;54.10;;;;;;4991969;28;81765;-47
2022/05/17 12:08:55;;;;;;;;;;;20.70;54.00;;;;;;4992343;28;82589;-47
2022/05/17 12:11:28;;;;;;;;;;;20.70;54.00;;;;;;4991037;28;82717;-48
2022/05/17 12:13:54;;;;;;;;;;;20.70;53.90;;;;;;4992435;28;84593;-47
2022/05/17 12:16:24;;;;;;;;;;;20.70;53.80;;;;;;4991519;28;82644;-47
2022/05/17 12:19:00;;;;;;;;;;;20.80;53.70;;;;;;4995145;28;81871;-47
2022/05/17 12:21:41;;;;;;;;;;;20.70;53.90;;;;;;4992322;28;82211;-47
2022/05/17 12:24:07;;;;;;;;;;;20.80;53.80;;;;;;4992340;28;81827;-47
2022/05/17 12:26:47;;;;;;;;;;;20.80;53.70;;;;;;4992016;28;82635;-48
2022/05/17 12:32:01;;;;;;;;;;;20.90;53.70;;;;;;4988967;28;81847;-47
2022/05/17 12:34:27;;;;;;;;;;;20.90;53.70;;;;;;4991805;28;82109;-47
2022/05/17 12:37:05;;;;;;;;;;;20.90;53.70;;;;;;4990850;28;83446;-47
2022/05/17 12:45:02;;;;;;;;;;;21.10;53.80;;;;;;4991894;28;81796;-47
2022/05/17 12:47:43;;;;;;;;;;;21.10;53.80;;;;;;4991748;28;82882;-47
2022/05/17 12:50:13;;;;;;;;;;;21.10;53.80;;;;;;4991088;28;83829;-47
2022/05/17 12:52:41;;;;;;;;;;;21.20;53.80;;;;;;4991857;28;81720;-47
2022/05/17 12:55:21;;;;;;;;;;;21.20;53.80;;;;;;4991867;28;82882;-47
2022/05/17 12:57:47;;;;;;;;;;;21.20;53.80;;;;;;4991311;28;83641;-47
2022/05/17 13:00:17;;;;;;;;;;;21.20;53.70;;;;;;4991336;28;81887;-47
2022/05/17 13:02:47;;;;;;;;;;;21.20;53.70;;;;;;4990266;28;82992;-47
2022/05/17 13:05:43;;;;;;;;;;;21.30;53.70;;;;;;4993932;28;82628;-47
2022/05/17 13:08:09;;;;;;;;;;;21.30;53.60;;;;;;4971000;28;82921;-47
2022/05/17 13:10:36;;;;;;;;;;;21.30;53.60;;;;;;4991310;28;82221;-48
2022/05/17 13:13:34;;;;;;;;;;;21.40;53.60;;;;;;4991146;28;81852;-47
2022/05/17 13:16:18;;;;;;;;;;;21.40;53.60;;;;;;4971666;28;83123;-47
2022/05/17 13:19:00;;;;;;;;;;;21.40;53.70;;;;;;4990932;28;83396;-47
2022/05/17 13:21:30;;;;;;;;;;;21.40;53.60;;;;;;4991529;28;81095;-47
2022/05/17 13:24:00;;;;;;;;;;;21.50;53.70;;;;;;4991436;28;81803;-47
2022/05/17 13:26:30;;;;;;;;;;;21.50;53.70;;;;;;4994068;28;81726;-47
2022/05/17 13:29:09;;;;;;;;;;;21.50;53.60;;;;;;4990562;28;82805;-47
2022/05/17 13:31:35;;;;;;;;;;;21.50;53.60;;;;;;4990932;28;83596;-47
2022/05/17 13:34:03;;;;;;;;;;;21.50;53.60;;;;;;4991330;28;81850;-47
2022/05/17 13:36:38;;;;;;;;;;;21.60;53.60;;;;;;4991121;28;82995;-47
2022/05/17 13:39:16;;;;;;;;;;;21.60;53.60;;;;;;4990938;28;83562;-47
2022/05/17 13:41:42;;;;;;;;;;;21.60;53.60;;;;;;4991281;28;81819;-47
2022/05/17 13:44:09;;;;;;;;;;;21.60;53.50;;;;;;4990673;28;82671;-47
2022/05/17 13:46:40;;;;;;;;;;;21.70;53.50;;;;;;4990884;28;81913;-48
2022/05/17 13:49:15;;;;;;;;;;;21.70;53.40;;;;;;4993072;28;81865;-47
2022/05/17 13:51:51;;;;;;;;;;;21.70;53.40;;;;;;4990437;28;82653;-47
2022/05/17 13:54:37;;;;;;;;;;;21.70;53.40;;;;;;4990162;28;83234;-47
2022/05/17 13:57:07;;;;;;;;;;;21.70;53.40;;;;;;4989866;28;84040;-47
2022/05/17 13:59:33;;;;;;;;;;;21.80;53.40;;;;;;4990398;28;83536;-47
2022/05/17 14:02:00;;;;;;;;;;;21.90;53.30;;;;;;4990572;28;81778;-48
2022/05/17 14:04:28;;;;;;;;;;;21.90;53.20;;;;;;4990353;28;82030;-47
2022/05/17 14:06:56;;;;;;;;;;;22.00;53.20;;;;;;4990130;28;83609;-47
2022/05/17 14:12:15;;;;;;;;;;;22.00;53.30;;;;;;4990376;28;81053;-47
2022/05/17 14:14:41;;;;;;;;;;;22.00;53.30;;;;;;4989292;28;81758;-47
2022/05/17 14:17:11;;;;;;;;;;;22.00;53.40;;;;;;4989904;28;82729;-48
2022/05/17 14:19:37;;;;;;;;;;;22.00;53.00;;;;;;4989276;28;84471;-47
2022/05/17 14:22:05;;;;;;;;;;;22.10;53.10;;;;;;4990570;28;81778;-48
2022/05/17 14:24:31;;;;;;;;;;;22.10;53.20;;;;;;4989917;28;82874;-47
2022/05/17 14:26:58;;;;;;;;;;;22.10;53.30;;;;;;4990178;28;82373;-47
2022/05/17 14:29:26;;;;;;;;;;;22.10;53.50;;;;;;4989863;28;81870;-47
2022/05/17 14:31:53;;;;;;;;;;;22.20;53.50;;;;;;4990047;28;82884;-47
2022/05/17 14:34:21;;;;;;;;;;;22.20;53.50;;;;;;4992777;28;82651;-47
2022/05/17 14:36:47;;;;;;;;;;;22.30;53.50;;;;;;4990620;28;82067;-47
2022/05/17 14:39:13;;;;;;;;;;;22.30;53.40;;;;;;4990065;28;82697;-47
2022/05/17 14:41:39;;;;;;;;;;;22.40;53.40;;;;;;4990136;28;81818;-47
2022/05/17 14:44:05;;;;;;;;;;;22.40;53.50;;;;;;4989261;28;82762;-47
2022/05/17 14:46:30;;;;;;;;;;;22.40;53.50;;;;;;4989519;28;83740;-47
2022/05/17 14:48:56;;;;;;;;;;;22.50;53.50;;;;;;4989372;28;81731;-47
2022/05/17 14:51:24;;;;;;;;;;;22.50;53.50;;;;;;4989774;28;82942;-47